📊 Raw Sensor Data

Showing records 34326 to 34350 of 84,844 total

ID Distance (ft) Battery V Battery A Int Temp (°F) Int Humid (%) Ext Temp (°F) Solar V RSSI SNR Time Stamp
50531 15.4 3.80 -5 63 46 64 0.00 -73 8 08/28/2025 11:15 PM
50530 15.5 3.80 -5 63 46 64 0.00 -74 7 08/28/2025 11:00 PM
50529 15.5 3.80 -5 64 46 65 0.00 -72 8 08/28/2025 10:45 PM
50528 15.4 3.80 -5 64 47 65 0.00 -72 8 08/28/2025 10:30 PM
50527 15.4 3.80 -5 65 47 65 0.00 -71 7 08/28/2025 10:15 PM
50526 15.4 3.80 -5 65 47 66 0.10 -71 8 08/28/2025 10:00 PM
50525 15.4 3.86 -5 66 48 67 0.00 -71 8 08/28/2025 09:45 PM
50524 15.4 3.86 -5 67 48 67 0.00 -70 8 08/28/2025 09:30 PM
50523 15.4 3.80 -5 68 49 68 0.00 -72 6 08/28/2025 09:15 PM
50522 15.4 3.80 -5 69 50 69 0.00 -72 8 08/28/2025 09:00 PM
50521 15.4 3.87 -5 70 51 70 0.00 -73 8 08/28/2025 08:45 PM
50520 15.4 3.80 -5 71 53 71 0.00 -72 7 08/28/2025 08:30 PM
50519 15.4 3.87 -5 72 54 71 0.00 -72 8 08/28/2025 08:15 PM
50518 15.4 3.80 -5 75 56 73 0.10 -71 7 08/28/2025 08:00 PM
50517 15.5 3.80 -9 79 58 74 3.90 -72 8 08/28/2025 07:45 PM
50516 15.4 3.88 0 86 56 78 4.60 -72 8 08/28/2025 07:30 PM
50515 15.5 3.89 6 92 53 86 4.60 -72 6 08/28/2025 07:15 PM
50514 15.6 3.84 -13 95 53 89 4.50 -72 8 08/28/2025 07:00 PM
50513 15.6 3.89 6 98 52 90 4.50 -72 7 08/28/2025 06:45 PM
50512 15.6 3.82 0 101 50 92 5.10 -73 8 08/28/2025 06:30 PM
50511 15.6 3.82 0 104 49 96 5.10 -72 7 08/28/2025 06:15 PM
50510 15.6 3.82 0 103 49 94 5.10 -72 8 08/28/2025 06:00 PM
50509 15.6 3.82 0 104 48 94 5.10 -71 8 08/28/2025 05:45 PM
50508 15.7 3.82 0 105 48 94 5.10 -72 7 08/28/2025 05:30 PM
50507 15.7 3.84 0 106 47 95 5.10 -72 8 08/28/2025 05:15 PM